Time;durP1;ratioP1;P1;durP2;ratioP2;P2;SDS_P1;SDS_P2;PMS_P1;PMS_P2;Temp;Humidity;BMP_temperature;BMP_pressure;BME280_temperature;BME280_humidity;BME280_pressure;Samples;Min_cycle;Max_cycle;Signal;HPM_P1;HPM_P2
2022/09/04 00:00:17;;;;;;;2.17;1.00;;;21.40;67.30;;;;;;2369744;53;20969;-74
2022/09/04 00:14:38;;;;;;;2.12;1.05;;;21.40;67.40;;;;;;2346958;53;21037;-72
2022/09/04 00:17:19;;;;;;;2.67;0.73;;;21.30;67.20;;;;;;2420246;52;20953;-71
2022/09/04 00:19:52;;;;;;;2.20;0.98;;;21.20;67.80;;;;;;2348814;53;20937;-71
2022/09/04 00:22:26;;;;;;;2.90;1.12;;;21.20;68.10;;;;;;2365814;53;20963;-71
2022/09/04 00:25:16;;;;;;;2.60;1.30;;;21.20;68.40;;;;;;2367397;53;21004;-71
2022/09/04 00:27:48;;;;;;;3.62;1.23;;;21.10;69.00;;;;;;2364439;53;21306;-70
2022/09/04 00:30:19;;;;;;;5.35;1.42;;;21.10;68.50;;;;;;2366856;53;20949;-72
2022/09/04 00:33:00;;;;;;;2.40;1.30;;;21.10;68.70;;;;;;2367030;53;20993;-71
2022/09/04 00:35:45;;;;;;;3.42;1.23;;;21.10;68.60;;;;;;2594041;52;20960;-72
2022/09/04 00:40:05;;;;;;;2.10;1.10;;;21.10;68.50;;;;;;2566493;53;20957;-71
2022/09/04 00:43:12;;;;;;;2.15;0.95;;;21.10;68.30;;;;;;2455771;52;21957;-71
2022/09/04 00:52:34;;;;;;;2.42;1.00;;;21.10;68.40;;;;;;2356246;53;20920;-72
2022/09/04 01:00:15;;;;;;;2.00;0.90;;;21.10;68.80;;;;;;2367682;53;20932;-73
2022/09/04 01:03:30;;;;;;;1.65;0.77;;;21.10;68.20;;;;;;2436793;52;20968;-74
2022/09/04 01:06:21;;;;;;;2.80;0.95;;;21.10;68.50;;;;;;2614295;52;21047;-72
2022/09/04 01:09:57;;;;;;;3.42;0.80;;;21.10;68.90;;;;;;2367326;53;20943;-72
2022/09/04 01:15:11;;;;;;;2.87;1.10;;;21.10;68.80;;;;;;2366848;53;20945;-74
2022/09/04 01:22:40;;;;;;;2.30;0.90;;;21.10;68.50;;;;;;2360163;53;21944;-72
2022/09/04 01:26:48;;;;;;;8.70;1.33;;;21.10;68.40;;;;;;2366156;53;20944;-71
2022/09/04 01:32:58;;;;;;;2.03;0.95;;;21.10;68.60;;;;;;2367153;53;20940;-72
2022/09/04 01:36:06;;;;;;;3.15;0.80;;;21.10;68.20;;;;;;2367157;53;21038;-73
2022/09/04 01:38:47;;;;;;;2.50;1.20;;;21.00;68.30;;;;;;2364744;53;20981;-73
2022/09/04 01:43:06;;;;;;;2.17;1.17;;;21.10;68.50;;;;;;2353669;53;20929;-71
2022/09/04 01:49:09;;;;;;;2.03;1.05;;;21.00;68.10;;;;;;2366005;53;20925;-72
2022/09/04 01:51:51;;;;;;;2.58;1.15;;;21.00;67.90;;;;;;2367685;53;20909;-74
2022/09/04 01:55:29;;;;;;;2.60;1.10;;;21.00;68.20;;;;;;2403651;52;20958;-72
2022/09/04 01:59:36;;;;;;;2.80;1.20;;;21.00;68.20;;;;;;2525670;52;20992;-72
2022/09/04 02:02:52;;;;;;;2.72;1.33;;;20.90;68.00;;;;;;2367879;53;20951;-72
2022/09/04 02:06:01;;;;;;;2.40;1.15;;;20.90;67.80;;;;;;2367678;53;20996;-75
2022/09/04 02:13:42;;;;;;;2.60;1.40;;;20.80;67.70;;;;;;2365062;53;21797;-72
2022/09/04 02:16:55;;;;;;;3.00;1.12;;;20.80;67.90;;;;;;2352588;53;20937;-75
2022/09/04 02:19:56;;;;;;;3.87;1.33;;;20.70;67.40;;;;;;2358023;53;20989;-74
2022/09/04 02:23:04;;;;;;;2.92;1.00;;;20.70;67.70;;;;;;2331129;53;21093;-71
2022/09/04 02:29:11;;;;;;;6.55;1.35;;;20.60;67.80;;;;;;2584720;52;20955;-73
2022/09/04 02:32:02;;;;;;;2.67;1.10;;;20.60;67.40;;;;;;2350658;53;21759;-72
2022/09/04 02:34:41;;;;;;;2.20;1.00;;;20.50;67.30;;;;;;2352254;53;20980;-71
2022/09/04 02:40:12;;;;;;;3.22;0.98;;;20.50;67.70;;;;;;2359817;53;20946;-72
2022/09/04 02:43:14;;;;;;;3.22;0.85;;;20.40;67.70;;;;;;2368709;54;20932;-72
2022/09/04 02:46:07;;;;;;;2.85;1.12;;;20.30;67.20;;;;;;2352622;53;20945;-72
2022/09/04 02:50:38;;;;;;;2.08;0.85;;;20.30;67.60;;;;;;2350085;53;21451;-71
2022/09/04 02:53:46;;;;;;;4.55;0.93;;;20.30;67.00;;;;;;2368333;53;20948;-72
2022/09/04 02:59:53;;;;;;;2.87;1.10;;;20.20;66.90;;;;;;2608613;52;21743;-71
2022/09/04 03:02:28;;;;;;;1.75;0.70;;;20.10;67.00;;;;;;2357220;53;21476;-71
2022/09/04 03:05:13;;;;;;;3.08;0.98;;;20.10;67.00;;;;;;2361626;53;20952;-71
2022/09/04 03:07:46;;;;;;;2.08;0.85;;;20.00;67.00;;;;;;2358517;53;21624;-72
2022/09/04 03:10:15;;;;;;;2.33;1.10;;;19.90;67.10;;;;;;2355650;53;21008;-71
2022/09/04 03:12:49;;;;;;;3.12;1.10;;;19.90;67.20;;;;;;2349925;53;20973;-74
2022/09/04 03:15:42;;;;;;;4.50;1.20;;;19.80;67.10;;;;;;2358603;53;20988;-71
2022/09/04 03:18:29;;;;;;;2.60;1.23;;;19.80;66.80;;;;;;2354350;53;20951;-72
2022/09/04 03:20:59;;;;;;;2.35;1.17;;;19.80;67.00;;;;;;2353849;53;20913;-71
2022/09/04 03:23:58;;;;;;;3.58;1.20;;;19.70;67.30;;;;;;2347531;53;21832;-73
2022/09/04 03:26:38;;;;;;;5.12;1.75;;;19.70;66.90;;;;;;2383425;52;21548;-72
2022/09/04 03:30:26;;;;;;;4.97;1.50;;;19.70;67.20;;;;;;2349894;53;20960;-72
2022/09/04 03:33:11;;;;;;;3.75;1.30;;;19.60;66.90;;;;;;2354347;52;20944;-71
2022/09/04 03:36:07;;;;;;;2.45;1.20;;;19.60;67.10;;;;;;2355912;53;21856;-71
2022/09/04 03:38:52;;;;;;;4.72;1.42;;;19.60;67.10;;;;;;2346267;53;21012;-74
2022/09/04 03:45:59;;;;;;;4.60;1.17;;;19.60;67.10;;;;;;2405938;52;21517;-71
2022/09/04 03:48:39;;;;;;;;;;;19.50;66.80;;;;;;2452883;52;21099;-71
2022/09/04 03:51:37;;;;;;;2.90;0.70;;;19.50;66.40;;;;;;2611956;52;20071;-72
2022/09/04 03:59:03;;;;;;;2.12;0.90;;;19.40;66.90;;;;;;2340648;53;20952;-71
2022/09/04 04:02:00;;;;;;;2.10;0.90;;;19.30;66.60;;;;;;2503744;52;20965;-72
2022/09/04 04:04:59;;;;;;;2.70;0.90;;;19.30;66.90;;;;;;2607914;52;20980;-72
2022/09/04 04:07:52;;;;;;;2.30;0.98;;;19.20;67.00;;;;;;2599260;52;20912;-71
2022/09/04 04:11:04;;;;;;;2.22;1.00;;;19.20;67.10;;;;;;2358218;53;21000;-72
2022/09/04 04:17:02;;;;;;;2.95;1.00;;;19.20;66.90;;;;;;2346210;53;21724;-73
2022/09/04 04:24:11;;;;;;;1.92;0.90;;;19.10;67.20;;;;;;2353284;53;21630;-71
2022/09/04 04:26:48;;;;;;;2.40;0.90;;;19.10;67.00;;;;;;2374812;54;21907;-75
2022/09/04 04:29:48;;;;;;;2.67;1.10;;;19.10;67.40;;;;;;2344676;53;20932;-71
2022/09/04 04:32:58;;;;;;;2.03;0.90;;;19.00;67.20;;;;;;2363014;53;20913;-70
2022/09/04 04:38:17;;;;;;;2.37;1.08;;;19.00;67.20;;;;;;2369899;53;21874;-75
2022/09/04 04:42:03;;;;;;;2.05;0.80;;;18.90;66.90;;;;;;2374844;53;20984;-71
2022/09/04 04:52:47;;;;;;;3.58;0.90;;;18.90;67.30;;;;;;2335122;53;21594;-73
2022/09/04 04:55:29;;;;;;;1.35;0.68;;;18.80;67.20;;;;;;2344510;53;20964;-70
2022/09/04 04:58:24;;;;;;;3.25;0.90;;;18.80;67.40;;;;;;2323852;54;20999;-71
2022/09/04 05:01:03;;;;;;;3.37;0.90;;;18.80;67.20;;;;;;2330438;53;20959;-71
2022/09/04 05:05:23;;;;;;;1.90;0.85;;;18.70;67.50;;;;;;2325584;53;21003;-73
2022/09/04 05:07:59;;;;;;;3.33;0.85;;;18.70;67.10;;;;;;2361512;53;20997;-71
2022/09/04 05:13:10;;;;;;;2.25;0.85;;;18.70;67.50;;;;;;2358018;53;21808;-72
2022/09/04 05:18:46;;;;;;;1.25;0.60;;;18.60;67.00;;;;;;2343381;53;21010;-73
2022/09/04 05:21:41;;;;;;;3.35;0.90;;;18.60;67.20;;;;;;2340960;53;21028;-72
2022/09/04 05:24:35;;;;;;;2.45;0.90;;;18.60;67.60;;;;;;2510182;52;20979;-71
2022/09/04 05:27:08;;;;;;;2.15;0.90;;;18.60;67.60;;;;;;2353845;53;20946;-70
2022/09/04 05:29:55;;;;;;;2.87;1.08;;;18.50;67.70;;;;;;2370538;54;21384;-70
2022/09/04 05:32:27;;;;;;;2.53;1.33;;;18.50;67.70;;;;;;2350528;54;20926;-71
2022/09/04 05:35:13;;;;;;;2.00;1.02;;;18.50;68.00;;;;;;2356596;53;21060;-70
2022/09/04 05:38:03;;;;;;;6.55;1.50;;;18.50;68.00;;;;;;2348591;53;20973;-71
2022/09/04 05:42:09;;;;;;;4.43;1.83;;;18.50;68.00;;;;;;2347396;53;21001;-71
2022/09/04 05:44:57;;;;;;;3.10;1.40;;;18.50;68.10;;;;;;2485374;52;21389;-72
2022/09/04 05:47:42;;;;;;;4.03;1.30;;;18.50;67.80;;;;;;2343989;53;20932;-74
2022/09/04 05:50:32;;;;;;;2.40;1.10;;;18.50;67.90;;;;;;2583806;52;21017;-72
2022/09/04 06:00:04;;;;;;;2.03;0.82;;;18.50;67.90;;;;;;2353479;53;21774;-71
2022/09/04 06:06:05;;;;;;;2.67;1.15;;;18.60;67.50;;;;;;2369407;54;21295;-74
2022/09/04 06:10:21;;;;;;;2.20;1.08;;;18.60;67.80;;;;;;2361574;53;21498;-75
2022/09/04 06:14:40;;;;;;;3.15;0.98;;;18.70;68.20;;;;;;2343644;53;20954;-71
2022/09/04 06:17:34;;;;;;;1.75;0.82;;;18.70;68.70;;;;;;2339068;53;20923;-75
2022/09/04 06:20:15;;;;;;;2.12;1.08;;;18.70;69.00;;;;;;2347251;53;21024;-72
2022/09/04 06:23:02;;;;;;;3.50;1.00;;;18.70;69.30;;;;;;2331772;53;20957;-74
2022/09/04 06:26:00;;;;;;;2.60;1.00;;;18.80;69.60;;;;;;2328618;54;20928;-72
2022/09/04 06:31:22;;;;;;;2.47;1.33;;;18.80;69.70;;;;;;2334144;53;20948;-75
2022/09/04 06:40:41;;;;;;;1.92;0.90;;;18.90;69.60;;;;;;2343938;53;21030;-71
2022/09/04 06:44:49;;;;;;;2.07;0.90;;;19.20;69.80;;;;;;2341998;53;21595;-72
2022/09/04 06:47:44;;;;;;;1.70;0.82;;;19.20;70.50;;;;;;2324829;53;20963;-72
2022/09/04 06:52:13;;;;;;;2.17;1.17;;;19.40;71.10;;;;;;2555842;53;20945;-74
2022/09/04 06:59:42;;;;;;;2.67;1.27;;;19.40;71.40;;;;;;2544348;52;20946;-76
2022/09/04 07:02:37;;;;;;;2.25;1.00;;;19.70;71.30;;;;;;2347360;53;21509;-72
2022/09/04 07:06:05;;;;;;;3.10;1.02;;;19.80;71.70;;;;;;2345517;53;20959;-71
2022/09/04 07:10:11;;;;;;;2.15;1.05;;;20.00;72.00;;;;;;2350150;53;20995;-76
2022/09/04 07:16:48;;;;;;;2.20;0.90;;;20.10;71.90;;;;;;2370083;53;21266;-72
2022/09/04 07:20:55;;;;;;;3.25;1.10;;;20.30;71.90;;;;;;2348857;53;20939;-71
2022/09/04 07:23:49;;;;;;;2.33;1.10;;;20.50;72.00;;;;;;2345234;53;21528;-72
2022/09/04 07:26:57;;;;;;;2.28;1.08;;;20.60;72.50;;;;;;2360387;53;21912;-69
2022/09/04 07:30:08;;;;;;;2.37;1.30;;;20.80;72.60;;;;;;2350571;53;21039;-69
2022/09/04 07:34:13;;;;;;;3.83;1.15;;;20.90;72.50;;;;;;2364196;53;20991;-69
2022/09/04 07:39:41;;;;;;;2.87;1.27;;;21.00;72.40;;;;;;2348514;53;21023;-71
2022/09/04 07:43:19;;;;;;;1.98;0.98;;;21.20;72.20;;;;;;2364244;53;21361;-77
2022/09/04 07:45:53;;;;;;;2.25;1.20;;;21.40;72.20;;;;;;2336695;53;20965;-69
2022/09/04 07:48:34;;;;;;;2.67;1.40;;;21.40;72.60;;;;;;2345258;53;20930;-69
2022/09/04 07:51:09;;;;;;;2.80;1.50;;;21.50;72.60;;;;;;2367865;53;21660;-71
2022/09/04 07:56:54;;;;;;;3.28;1.50;;;21.60;72.80;;;;;;2586508;52;21049;-68
2022/09/04 07:59:41;;;;;;;2.47;1.17;;;21.70;72.70;;;;;;2362014;53;21063;-70
2022/09/04 08:10:47;;;;;;;2.20;1.20;;;21.90;72.50;;;;;;2345132;53;20983;-68
2022/09/04 08:13:32;;;;;;;2.50;1.10;;;22.20;71.90;;;;;;2589535;52;21069;-69
2022/09/04 08:16:14;;;;;;;3.15;1.35;;;22.30;72.20;;;;;;2348069;53;20987;-68
2022/09/04 08:19:23;;;;;;;2.45;1.10;;;22.40;72.20;;;;;;2597550;52;21841;-68
2022/09/04 08:21:51;;;;;;;2.58;1.17;;;22.50;72.20;;;;;;2362657;53;21007;-73
2022/09/04 08:24:57;;;;;;;2.17;1.17;;;22.50;73.20;;;;;;2346734;53;20999;-68
2022/09/04 08:28:00;;;;;;;2.50;1.17;;;22.60;72.10;;;;;;2358830;53;21015;-70
2022/09/04 08:30:40;;;;;;;2.40;1.20;;;22.70;72.10;;;;;;2339246;53;20957;-71
2022/09/04 08:34:34;;;;;;;2.33;1.20;;;22.80;72.20;;;;;;2358996;53;20978;-73
2022/09/04 08:37:27;;;;;;;2.70;1.00;;;22.90;71.80;;;;;;2358192;53;20911;-73
2022/09/04 08:42:45;;;;;;;2.92;1.37;;;23.00;72.30;;;;;;2348280;53;21025;-74
2022/09/04 08:47:11;;;;;;;4.60;1.10;;;23.10;71.80;;;;;;2347714;53;21008;-70
2022/09/04 08:52:24;;;;;;;4.93;1.50;;;23.20;72.10;;;;;;2342033;53;20957;-70
2022/09/04 08:55:32;;;;;;;2.90;1.40;;;23.40;72.40;;;;;;2362486;53;21038;-70
2022/09/04 09:11:34;;;;;;;2.62;1.30;;;23.60;72.60;;;;;;2368365;53;21711;-70
2022/09/04 09:17:17;;;;;;;1.70;0.80;;;23.60;72.30;;;;;;2362640;53;20947;-71
2022/09/04 09:21:37;;;;;;;2.28;0.95;;;24.30;71.60;;;;;;2354692;53;21027;-70
2022/09/04 09:25:47;;;;;;;2.30;0.90;;;24.40;71.40;;;;;;2619349;52;20930;-73
2022/09/04 09:28:55;;;;;;;2.40;1.10;;;24.50;71.60;;;;;;2426870;52;20971;-71
2022/09/04 09:36:05;;;;;;;1.80;0.85;;;24.60;71.00;;;;;;2610471;52;21007;-69
2022/09/04 09:39:21;;;;;;;2.15;1.12;;;24.80;70.70;;;;;;2369475;53;20995;-71
2022/09/04 09:42:54;;;;;;;2.95;1.55;;;24.90;70.80;;;;;;2357756;53;21924;-71
2022/09/04 09:45:40;;;;;;;3.25;1.45;;;25.00;70.50;;;;;;2419925;52;20983;-72
2022/09/04 09:48:38;;;;;;;3.37;1.73;;;25.00;71.20;;;;;;2342666;53;20973;-72
2022/09/04 09:54:30;;;;;;;2.30;1.30;;;25.10;70.50;;;;;;2359716;53;21377;-75
2022/09/04 10:00:16;;;;;;;2.30;1.12;;;25.20;69.90;;;;;;2361588;53;21322;-71
2022/09/04 10:06:12;;;;;;;1.87;0.85;;;25.40;69.80;;;;;;2354533;53;20967;-72
2022/09/04 10:11:53;;;;;;;2.08;0.95;;;25.50;69.50;;;;;;2591383;52;21019;-71
2022/09/04 10:19:45;;;;;;;1.70;0.80;;;25.70;69.20;;;;;;2370190;53;21478;-71
2022/09/04 10:22:23;;;;;;;1.33;0.60;;;25.70;68.80;;;;;;2336701;53;21350;-71
2022/09/04 10:28:27;;;;;;;1.45;0.70;;;25.90;69.00;;;;;;2363330;53;20950;-71
2022/09/04 10:31:22;;;;;;;1.90;0.80;;;26.00;68.30;;;;;;2372538;53;20937;-71
2022/09/04 10:44:03;;;;;;;1.73;0.88;;;26.20;67.70;;;;;;2598719;52;20983;-69
2022/09/04 10:48:05;;;;;;;1.55;0.65;;;26.30;67.30;;;;;;2368310;53;21013;-71
2022/09/04 10:51:11;;;;;;;1.85;0.73;;;26.40;66.70;;;;;;2338704;53;20941;-71
2022/09/04 10:55:49;;;;;;;1.83;0.70;;;26.40;66.30;;;;;;2367043;53;20965;-71
2022/09/04 11:02:14;;;;;;;1.70;0.90;;;26.50;66.50;;;;;;2345586;53;21100;-71
2022/09/04 11:06:51;;;;;;;1.25;0.60;;;26.60;65.10;;;;;;2338986;53;20968;-71
2022/09/04 11:09:44;;;;;;;2.90;0.82;;;26.70;65.20;;;;;;2339378;53;21524;-69
2022/09/04 11:12:38;;;;;;;3.00;1.00;;;26.70;64.40;;;;;;2389470;53;21036;-69
2022/09/04 11:15:21;;;;;;;1.90;0.80;;;26.70;64.50;;;;;;2333705;54;21068;-71
2022/09/04 11:18:22;;;;;;;2.30;0.70;;;26.70;65.40;;;;;;2345647;53;20927;-73
2022/09/04 11:24:05;;;;;;;1.60;0.70;;;26.80;63.40;;;;;;2349921;53;20986;-70
2022/09/04 11:29:58;;;;;;;1.08;0.50;;;26.90;63.90;;;;;;2344877;53;20974;-70
2022/09/04 11:34:16;;;;;;;1.23;0.50;;;27.00;63.40;;;;;;2344830;53;20993;-71
2022/09/04 11:39:36;;;;;;;1.65;0.60;;;27.10;63.10;;;;;;2592414;52;20966;-74
2022/09/04 11:43:18;;;;;;;1.52;0.70;;;27.20;63.00;;;;;;2341449;53;20929;-70
2022/09/04 11:46:28;;;;;;;1.70;0.62;;;27.20;63.00;;;;;;2367142;53;21043;-70
2022/09/04 11:52:07;;;;;;;1.27;0.57;;;27.30;62.60;;;;;;2341791;53;21746;-69
2022/09/04 11:55:08;;;;;;;1.12;0.60;;;27.30;62.10;;;;;;2350949;53;21112;-69
2022/09/04 11:57:52;;;;;;;1.00;0.50;;;27.40;61.20;;;;;;2451903;53;21555;-69
2022/09/04 12:00:18;;;;;;;3.75;1.05;;;27.40;62.10;;;;;;2510388;52;20949;-68
2022/09/04 12:06:13;;;;;;;2.87;0.90;;;27.50;62.10;;;;;;2359058;52;21853;-67
2022/09/04 12:21:50;;;;;;;1.40;0.60;;;27.60;60.60;;;;;;2350019;53;20940;-70
2022/09/04 12:24:51;;;;;;;1.40;0.50;;;27.80;60.00;;;;;;2342052;52;23697;-69
2022/09/04 12:27:55;;;;;;;4.00;0.88;;;27.80;59.80;;;;;;2327304;57;21632;-69
2022/09/04 12:30:43;;;;;;;1.33;0.60;;;27.80;58.30;;;;;;2321415;54;21060;-71
2022/09/04 12:33:35;;;;;;;1.45;0.70;;;27.80;59.10;;;;;;2319452;54;20999;-69
2022/09/04 12:36:33;;;;;;;1.62;0.73;;;27.80;57.60;;;;;;2553995;53;20944;-72
2022/09/04 12:39:49;;;;;;;1.40;0.70;;;27.90;57.20;;;;;;2310846;53;20939;-71
2022/09/04 12:44:12;;;;;;;2.22;0.65;;;27.90;57.40;;;;;;2307974;53;20941;-69
2022/09/04 12:46:59;;;;;;;1.20;0.70;;;27.90;58.10;;;;;;2344639;54;20953;-73
2022/09/04 12:49:54;;;;;;;1.37;0.65;;;28.00;57.10;;;;;;2303601;54;20963;-69
2022/09/04 12:52:56;;;;;;;1.75;0.50;;;28.00;56.80;;;;;;2327363;53;20968;-71
2022/09/04 12:55:44;;;;;;;1.92;0.70;;;28.10;56.70;;;;;;2525782;53;20978;-70
2022/09/04 12:58:32;;;;;;;2.30;0.80;;;28.10;56.90;;;;;;2337467;53;20913;-69
2022/09/04 13:01:30;;;;;;;1.42;0.70;;;28.20;56.60;;;;;;2361376;53;20948;-70
2022/09/04 13:08:28;;;;;;;2.37;0.80;;;28.20;56.40;;;;;;2345135;53;20996;-70
2022/09/04 13:11:16;;;;;;;1.80;0.50;;;28.30;56.90;;;;;;2320683;53;20943;-70
2022/09/04 13:13:55;;;;;;;1.25;0.60;;;28.40;56.30;;;;;;2365653;53;20968;-70
2022/09/04 13:20:22;;;;;;;1.48;0.60;;;28.40;55.90;;;;;;2368352;53;20971;-69
2022/09/04 13:23:13;;;;;;;1.92;0.60;;;28.50;55.30;;;;;;2369286;53;21803;-69
2022/09/04 13:26:15;;;;;;;1.45;0.60;;;28.60;56.30;;;;;;2331918;53;21020;-69
2022/09/04 13:30:24;;;;;;;2.33;0.70;;;28.70;55.80;;;;;;2556083;52;20949;-73
2022/09/04 13:33:38;;;;;;;1.83;0.70;;;28.70;56.00;;;;;;2361861;53;21043;-70
2022/09/04 13:36:27;;;;;;;2.08;0.70;;;28.80;55.10;;;;;;2360968;53;20935;-69
2022/09/04 13:39:17;;;;;;;2.03;0.70;;;28.80;56.10;;;;;;2360478;53;20940;-70
2022/09/04 13:42:10;;;;;;;1.67;0.70;;;28.90;54.60;;;;;;2353425;53;21027;-73
2022/09/04 13:46:31;;;;;;;1.92;0.75;;;29.00;55.30;;;;;;2346612;53;20977;-73
2022/09/04 13:49:04;;;;;;;1.67;0.62;;;29.00;55.00;;;;;;2370626;53;20952;-69
2022/09/04 13:51:33;;;;;;;1.40;0.70;;;29.10;55.10;;;;;;2364650;53;21039;-70
2022/09/04 13:54:16;;;;;;;1.87;0.77;;;29.10;54.90;;;;;;2349022;52;21098;-72
2022/09/04 13:56:52;;;;;;;1.35;0.60;;;29.10;53.90;;;;;;2355031;53;20941;-72
2022/09/04 13:59:20;;;;;;;1.80;0.70;;;29.10;54.30;;;;;;2370619;52;20987;-70
2022/09/04 14:01:50;;;;;;;1.67;0.60;;;29.20;54.30;;;;;;2353494;53;21240;-72
2022/09/04 14:04:26;;;;;;;1.17;0.68;;;29.20;54.00;;;;;;2352732;53;20933;-70
2022/09/04 14:06:58;;;;;;;1.40;0.70;;;29.20;53.80;;;;;;2356840;53;20948;-73
2022/09/04 14:09:25;;;;;;;1.45;0.60;;;29.30;53.50;;;;;;2353716;53;21837;-72
2022/09/04 14:13:00;;;;;;;1.17;0.57;;;29.30;53.80;;;;;;2582105;52;21009;-69
2022/09/04 14:15:58;;;;;;;1.67;0.65;;;29.30;52.10;;;;;;2358441;53;20956;-73
2022/09/04 14:19:23;;;;;;;1.75;0.88;;;29.40;53.10;;;;;;2369801;54;20934;-70
2022/09/04 14:22:16;;;;;;;1.83;0.75;;;29.50;52.40;;;;;;2364320;53;20977;-69
2022/09/04 14:25:09;;;;;;;1.08;0.50;;;29.50;51.80;;;;;;2345891;53;20992;-71
2022/09/04 14:34:39;;;;;;;1.20;0.50;;;29.60;52.10;;;;;;2368776;53;20970;-69
2022/09/04 14:37:47;;;;;;;1.30;0.47;;;29.80;53.00;;;;;;2349496;54;21563;-70
2022/09/04 14:40:24;;;;;;;1.10;0.52;;;29.80;52.50;;;;;;2348075;53;20936;-70
2022/09/04 14:43:43;;;;;;;1.45;0.70;;;29.80;52.50;;;;;;2353218;53;21088;-74
2022/09/04 14:46:26;;;;;;;0.95;0.50;;;29.90;52.90;;;;;;2610374;52;20946;-70
2022/09/04 14:49:03;;;;;;;2.87;0.80;;;29.90;52.40;;;;;;2619397;52;20958;-70
2022/09/04 14:51:34;;;;;;;1.50;0.62;;;30.00;51.90;;;;;;2373226;53;20978;-71
2022/09/04 14:54:00;;;;;;;1.67;0.70;;;30.00;51.60;;;;;;2344855;54;21021;-69
2022/09/04 14:56:41;;;;;;;1.12;0.50;;;30.00;52.10;;;;;;2354106;53;21574;-68
2022/09/04 14:59:28;;;;;;;1.42;0.60;;;30.00;50.90;;;;;;2372512;54;20984;-71
2022/09/04 15:02:36;;;;;;;1.50;0.70;;;30.00;51.20;;;;;;2351899;53;21207;-71
2022/09/04 15:05:19;;;;;;;1.90;0.68;;;30.10;50.60;;;;;;2314854;54;20952;-71
2022/09/04 15:07:53;;;;;;;0.93;0.50;;;30.10;51.20;;;;;;2339280;53;21057;-72
2022/09/04 15:12:24;;;;;;;1.12;0.50;;;30.10;50.30;;;;;;2320016;53;21044;-72
2022/09/04 15:15:04;;;;;;;1.70;0.62;;;30.20;50.40;;;;;;2313694;54;21039;-70
2022/09/04 15:17:31;;;;;;;1.50;0.60;;;30.20;50.20;;;;;;2302378;54;21834;-70
2022/09/04 15:20:00;;;;;;;1.73;0.60;;;30.20;50.70;;;;;;2331424;54;21014;-70
2022/09/04 15:22:39;;;;;;;1.23;0.60;;;30.10;50.40;;;;;;2572250;53;20965;-70
2022/09/04 15:25:26;;;;;;;1.17;0.52;;;30.10;49.10;;;;;;2549810;53;20974;-69
2022/09/04 15:28:25;;;;;;;0.93;0.50;;;30.20;49.90;;;;;;2450051;52;20929;-70
2022/09/04 15:33:29;;;;;;;1.08;0.55;;;30.10;49.20;;;;;;2320678;53;21058;-69
2022/09/04 15:36:16;;;;;;;1.73;0.60;;;30.20;49.80;;;;;;2311274;54;21455;-70
2022/09/04 15:38:49;;;;;;;1.23;0.40;;;30.20;48.90;;;;;;2306750;54;21075;-72
2022/09/04 15:41:20;;;;;;;1.42;0.62;;;30.10;49.80;;;;;;2320288;54;20921;-72
2022/09/04 15:43:50;;;;;;;1.37;0.50;;;30.10;49.70;;;;;;2321984;53;20971;-71
2022/09/04 15:46:42;;;;;;;1.17;0.60;;;30.10;49.40;;;;;;2460912;53;21455;-72
2022/09/04 15:51:01;;;;;;;1.42;0.50;;;30.00;47.60;;;;;;2342786;53;21426;-69
2022/09/04 15:53:29;;;;;;;1.27;0.57;;;30.00;48.40;;;;;;2586687;52;20977;-73
2022/09/04 15:57:54;;;;;;;1.42;0.50;;;30.00;49.50;;;;;;2337442;53;20986;-69
2022/09/04 16:00:22;;;;;;;1.00;0.40;;;30.00;48.70;;;;;;2315370;54;21455;-70
2022/09/04 16:03:00;;;;;;;1.40;0.60;;;30.00;49.30;;;;;;2311134;54;20979;-70
2022/09/04 16:05:43;;;;;;;1.52;0.50;;;29.90;48.80;;;;;;2318529;54;20947;-71
2022/09/04 16:09:52;;;;;;;1.48;0.52;;;29.90;48.60;;;;;;2318767;54;21377;-69
2022/09/04 16:12:32;;;;;;;0.88;0.47;;;29.90;48.40;;;;;;2348539;53;21471;-74
2022/09/04 16:15:07;;;;;;;1.00;0.55;;;29.90;48.40;;;;;;2333730;53;21083;-70
2022/09/04 16:17:43;;;;;;;1.50;0.80;;;29.90;48.80;;;;;;2328533;53;21665;-70
2022/09/04 16:22:05;;;;;;;1.52;0.70;;;29.90;48.60;;;;;;2334350;54;20962;-71
2022/09/04 16:24:44;;;;;;;1.12;0.60;;;29.90;48.30;;;;;;2372316;53;20938;-68
2022/09/04 16:27:13;;;;;;;1.02;0.50;;;29.90;49.00;;;;;;2355242;54;20936;-69
2022/09/04 16:29:54;;;;;;;1.23;0.60;;;29.90;49.00;;;;;;2457803;53;21013;-69
2022/09/04 16:32:25;;;;;;;2.40;0.70;;;29.80;48.10;;;;;;2370324;53;20952;-69
2022/09/04 16:35:07;;;;;;;1.62;0.60;;;29.80;48.30;;;;;;2348068;54;21028;-70
2022/09/04 16:37:41;;;;;;;1.23;0.60;;;29.80;48.90;;;;;;2343224;53;20968;-69
2022/09/04 16:40:29;;;;;;;1.23;0.50;;;29.80;48.60;;;;;;2338651;53;20956;-70
2022/09/04 16:46:28;;;;;;;0.82;0.40;;;29.70;47.50;;;;;;2325974;54;21007;-68
2022/09/04 16:49:02;;;;;;;0.60;0.40;;;29.80;48.60;;;;;;2337569;53;20993;-70
2022/09/04 16:52:21;;;;;;;0.82;0.43;;;29.70;49.30;;;;;;2331189;53;20999;-68
2022/09/04 16:55:37;;;;;;;1.33;0.50;;;29.70;48.10;;;;;;2311385;54;20987;-73
2022/09/04 16:58:18;;;;;;;1.83;0.60;;;29.70;48.40;;;;;;2338616;53;20928;-68
2022/09/04 17:00:57;;;;;;;1.12;0.50;;;29.60;48.70;;;;;;2321176;54;21006;-69
2022/09/04 17:03:24;;;;;;;1.27;0.52;;;29.60;48.90;;;;;;2504529;52;20981;-69
2022/09/04 17:06:04;;;;;;;1.62;0.50;;;29.50;49.20;;;;;;2576182;52;20929;-73
2022/09/04 17:08:33;;;;;;;1.15;0.50;;;29.50;49.60;;;;;;2616950;52;21037;-74
2022/09/04 17:12:42;;;;;;;0.77;0.40;;;29.50;49.20;;;;;;2365265;54;21050;-71
2022/09/04 17:15:56;;;;;;;0.60;0.40;;;29.40;48.50;;;;;;2365869;54;20964;-69
2022/09/04 17:18:24;;;;;;;0.55;0.30;;;29.40;49.30;;;;;;2366153;54;20973;-69
2022/09/04 17:25:03;;;;;;;1.40;0.57;;;29.40;48.80;;;;;;2365673;54;20945;-69
2022/09/04 17:27:39;;;;;;;2.12;0.62;;;29.30;48.80;;;;;;2510809;52;20921;-69
2022/09/04 17:30:06;;;;;;;1.98;0.90;;;29.30;50.20;;;;;;2458875;52;20936;-67
2022/09/04 17:32:41;;;;;;;2.58;0.68;;;29.30;49.90;;;;;;2583767;52;20973;-68
2022/09/04 17:37:01;;;;;;;2.40;0.75;;;29.20;49.60;;;;;;2348218;54;21669;-67
2022/09/04 17:39:35;;;;;;;2.22;1.08;;;29.20;49.40;;;;;;2344470;54;20974;-67
2022/09/04 17:42:11;;;;;;;2.25;1.00;;;29.10;49.90;;;;;;2340823;53;20938;-68
2022/09/04 17:44:47;;;;;;;1.85;0.88;;;29.00;49.90;;;;;;2332711;53;20988;-70
2022/09/04 17:47:45;;;;;;;1.92;0.70;;;29.00;50.00;;;;;;2345225;54;21513;-68
2022/09/04 17:50:15;;;;;;;1.50;0.60;;;28.90;49.50;;;;;;2312045;54;21116;-67
2022/09/04 17:53:01;;;;;;;1.60;0.73;;;28.90;50.10;;;;;;2322019;54;20961;-69
2022/09/04 17:55:30;;;;;;;1.98;0.70;;;28.80;49.40;;;;;;2309772;55;20945;-68
2022/09/04 17:58:27;;;;;;;2.03;0.52;;;28.70;50.00;;;;;;2318703;54;20950;-68
2022/09/04 18:01:15;;;;;;;1.52;0.65;;;28.70;49.50;;;;;;2311008;54;20937;-68
2022/09/04 18:07:37;;;;;;;1.58;0.65;;;28.60;49.50;;;;;;2310391;54;21839;-69
2022/09/04 18:10:27;;;;;;;1.02;0.50;;;28.40;49.50;;;;;;2343922;53;20986;-68
2022/09/04 18:13:29;;;;;;;1.50;0.55;;;28.30;49.40;;;;;;2337957;53;22516;-68
2022/09/04 18:16:33;;;;;;;1.37;0.60;;;28.20;49.50;;;;;;2590114;52;20944;-71
2022/09/04 18:19:36;;;;;;;1.58;0.55;;;28.10;49.60;;;;;;2330788;54;20994;-68
2022/09/04 18:28:39;;;;;;;0.95;0.40;;;27.90;49.70;;;;;;2554979;53;21055;-71
2022/09/04 18:31:35;;;;;;;0.20;0.20;;;27.70;49.50;;;;;;2575903;53;20973;-73
2022/09/04 18:34:10;;;;;;;1.02;0.50;;;27.40;49.70;;;;;;2337484;53;20919;-68
2022/09/04 18:37:42;;;;;;;2.75;0.82;;;27.30;49.90;;;;;;2366935;54;21040;-70
2022/09/04 18:40:24;;;;;;;1.08;0.45;;;27.10;49.60;;;;;;2363557;56;21045;-67
2022/09/04 18:44:26;;;;;;;0.85;0.40;;;27.00;49.90;;;;;;2350563;54;20968;-69
2022/09/04 18:47:30;;;;;;;2.65;0.70;;;26.80;50.00;;;;;;2364652;54;20948;-70
2022/09/04 18:49:57;;;;;;;1.73;0.68;;;26.70;50.10;;;;;;2338780;54;20949;-69
2022/09/04 18:52:43;;;;;;;2.33;0.80;;;26.50;50.40;;;;;;2343579;53;20986;-67
2022/09/04 18:55:19;;;;;;;1.70;0.60;;;26.40;50.40;;;;;;2340500;54;21021;-69
2022/09/04 18:58:16;;;;;;;1.55;0.70;;;26.30;50.30;;;;;;2332843;55;21037;-69
2022/09/04 19:01:21;;;;;;;1.70;0.62;;;26.20;50.20;;;;;;2313243;55;21008;-72
2022/09/04 19:04:27;;;;;;;1.25;0.60;;;26.10;50.20;;;;;;2333365;54;21036;-66
2022/09/04 19:07:09;;;;;;;2.65;0.60;;;26.00;51.00;;;;;;2334556;54;20889;-68
2022/09/04 19:09:53;;;;;;;1.40;0.60;;;25.90;50.40;;;;;;2589024;53;20985;-68
2022/09/04 19:12:22;;;;;;;1.45;0.60;;;25.80;50.60;;;;;;2341974;54;20956;-68
2022/09/04 19:14:48;;;;;;;1.40;0.50;;;25.70;50.90;;;;;;2586254;53;20985;-69
2022/09/04 19:17:20;;;;;;;1.83;0.70;;;25.70;51.00;;;;;;2342837;54;20924;-68
2022/09/04 19:19:53;;;;;;;1.27;0.60;;;25.60;51.60;;;;;;2343203;54;20941;-74
2022/09/04 19:22:42;;;;;;;1.23;0.52;;;25.50;50.90;;;;;;2342621;53;20992;-68
2022/09/04 19:25:43;;;;;;;1.45;0.60;;;25.40;51.00;;;;;;2588396;53;20928;-68
2022/09/04 19:28:17;;;;;;;1.35;0.57;;;25.30;50.70;;;;;;2343576;53;20952;-68
2022/09/04 19:30:54;;;;;;;1.67;0.60;;;25.20;51.10;;;;;;2343085;54;20940;-68
2022/09/04 19:35:47;;;;;;;1.48;0.60;;;25.20;51.00;;;;;;2342731;54;21023;-68